createdAt,value
2023-04-09T00:01:04.248Z,-0.10
2023-04-09T00:03:50.086Z,-0.10
2023-04-09T00:09:13.222Z,-0.10
2023-04-09T00:11:41.770Z,-0.10
2023-04-09T00:14:15.128Z,-0.10
2023-04-09T00:16:43.728Z,-0.10
2023-04-09T00:19:14.023Z,-0.10
2023-04-09T00:21:42.672Z,0.00
2023-04-09T00:24:25.250Z,0.00
2023-04-09T00:26:59.641Z,0.10
2023-04-09T00:29:28.230Z,0.10
2023-04-09T00:32:00.135Z,0.10
2023-04-09T00:34:29.536Z,0.10
2023-04-09T00:36:58.210Z,0.20
2023-04-09T00:39:31.826Z,0.20
2023-04-09T00:42:04.522Z,0.20
2023-04-09T00:44:36.573Z,0.10
2023-04-09T00:47:05.891Z,0.10
2023-04-09T00:49:36.045Z,0.10
2023-04-09T00:54:53.151Z,0.10
2023-04-09T00:57:22.017Z,0.20
2023-04-09T00:59:50.944Z,0.20
2023-04-09T01:02:20.264Z,0.10
2023-04-09T01:04:52.947Z,0.10
2023-04-09T01:07:36.225Z,0.00
2023-04-09T01:10:18.403Z,0.00
2023-04-09T01:13:08.945Z,-0.10
2023-04-09T01:15:48.059Z,-0.20
2023-04-09T01:21:43.211Z,0.00
2023-04-09T01:24:23.611Z,0.10
2023-04-09T01:27:08.071Z,0.30
2023-04-09T01:29:48.741Z,0.40
2023-04-09T01:32:20.955Z,0.40
2023-04-09T01:34:50.883Z,0.50
2023-04-09T01:37:25.062Z,0.50
2023-04-09T01:39:56.730Z,0.50
2023-04-09T01:42:32.031Z,0.50
2023-04-09T01:45:06.183Z,0.40
2023-04-09T01:47:42.061Z,0.30
2023-04-09T01:50:18.012Z,0.30
2023-04-09T01:52:53.699Z,0.20
2023-04-09T01:55:23.177Z,0.20
2023-04-09T01:57:52.330Z,0.10
2023-04-09T02:00:23.493Z,0.00
2023-04-09T02:03:00.526Z,0.00
2023-04-09T02:05:40.128Z,0.00
2023-04-09T02:08:12.320Z,0.10
2023-04-09T02:10:44.968Z,0.10
2023-04-09T02:13:18.706Z,0.10
2023-04-09T02:15:53.829Z,0.10
2023-04-09T02:18:29.534Z,0.00
2023-04-09T02:21:01.486Z,-0.10
2023-04-09T02:23:32.636Z,-0.10
2023-04-09T02:26:02.806Z,-0.10
2023-04-09T02:28:31.894Z,-0.10
2023-04-09T02:31:09.047Z,-0.20
2023-04-09T02:33:50.589Z,-0.20
2023-04-09T02:36:23.816Z,-0.30
2023-04-09T02:38:55.705Z,-0.30
2023-04-09T02:41:25.142Z,-0.40
2023-04-09T02:43:53.895Z,-0.40
2023-04-09T02:46:23.953Z,-0.50
2023-04-09T02:48:52.939Z,-0.50
2023-04-09T02:51:22.286Z,-0.40
2023-04-09T02:53:54.404Z,-0.30
2023-04-09T02:56:23.443Z,-0.20
2023-04-09T02:58:54.478Z,-0.10
2023-04-09T03:01:32.570Z,0.00
2023-04-09T03:04:12.470Z,0.10
2023-04-09T03:06:54.525Z,0.20
2023-04-09T03:09:26.202Z,0.20
2023-04-09T03:11:58.142Z,0.30
2023-04-09T03:14:36.410Z,0.30
2023-04-09T03:17:14.468Z,0.40
2023-04-09T03:19:46.627Z,0.40
2023-04-09T03:22:22.880Z,0.50
2023-04-09T03:24:56.700Z,0.50
2023-04-09T03:27:26.353Z,0.50
2023-04-09T03:30:05.594Z,0.50
2023-04-09T03:33:06.280Z,0.50
2023-04-09T03:35:36.369Z,0.50
2023-04-09T03:38:09.784Z,0.60
2023-04-09T03:40:46.054Z,0.70
2023-04-09T03:43:17.832Z,0.80
2023-04-09T03:45:46.766Z,0.80
2023-04-09T03:48:25.708Z,0.90
2023-04-09T03:50:57.626Z,0.90
2023-04-09T03:53:29.729Z,0.90
2023-04-09T03:56:01.283Z,0.80
2023-04-09T03:58:52.318Z,0.80
2023-04-09T04:01:24.589Z,0.80
2023-04-09T04:04:00.271Z,0.70
2023-04-09T04:06:29.310Z,0.60
2023-04-09T04:08:58.119Z,0.50
2023-04-09T04:11:32.750Z,0.40
2023-04-09T04:14:02.491Z,0.30
2023-04-09T04:16:33.182Z,0.20
2023-04-09T04:19:05.837Z,0.20
2023-04-09T04:21:40.421Z,0.20
2023-04-09T04:24:09.411Z,0.10
2023-04-09T04:26:41.516Z,0.10
2023-04-09T04:29:10.089Z,-0.10
2023-04-09T04:35:12.647Z,-0.20
2023-04-09T04:38:09.755Z,-0.30
2023-04-09T04:44:12.685Z,-0.30
2023-04-09T04:46:50.272Z,-0.40
2023-04-09T04:49:25.963Z,-0.30
2023-04-09T04:51:54.641Z,-0.30
2023-04-09T04:54:27.729Z,-0.20
2023-04-09T04:56:58.952Z,-0.10
2023-04-09T05:02:29.825Z,0.30
2023-04-09T05:05:06.895Z,0.30
2023-04-09T05:07:44.888Z,0.40
2023-04-09T05:10:22.551Z,0.40
2023-04-09T05:12:53.801Z,0.50
2023-04-09T05:15:24.551Z,0.60
2023-04-09T05:17:56.015Z,0.70
2023-04-09T05:20:27.851Z,0.80
2023-04-09T05:22:57.362Z,0.80
2023-04-09T05:25:44.636Z,0.80
2023-04-09T05:28:17.212Z,0.80
2023-04-09T05:30:51.448Z,0.80
2023-04-09T05:33:26.541Z,0.70
2023-04-09T05:36:06.724Z,0.60
2023-04-09T05:38:35.719Z,0.70
2023-04-09T05:41:09.897Z,0.60
2023-04-09T05:43:43.500Z,0.70
2023-04-09T05:46:15.477Z,0.70
2023-04-09T05:48:45.627Z,0.80
2023-04-09T05:51:15.691Z,0.90
2023-04-09T05:53:47.367Z,1.10
2023-04-09T05:56:17.480Z,1.30
2023-04-09T05:58:46.076Z,1.60
2023-04-09T06:01:14.439Z,2.00
2023-04-09T06:03:43.038Z,3.00
2023-04-09T06:06:11.383Z,4.10
2023-04-09T06:08:39.829Z,5.40
2023-04-09T06:11:10.585Z,6.40
2023-04-09T06:13:40.589Z,7.30
2023-04-09T06:16:10.271Z,8.20
2023-04-09T06:18:38.783Z,9.00
2023-04-09T06:21:08.304Z,9.70
2023-04-09T06:23:37.708Z,10.10
2023-04-09T06:26:06.465Z,10.60
2023-04-09T06:28:37.332Z,10.90
2023-04-09T06:31:07.320Z,11.30
2023-04-09T06:33:35.604Z,12.00
2023-04-09T06:36:03.865Z,11.90
2023-04-09T06:38:35.486Z,11.10
2023-04-09T06:41:03.725Z,10.50
2023-04-09T06:43:32.005Z,9.80
2023-04-09T06:46:07.880Z,9.00
2023-04-09T06:48:36.293Z,8.20
2023-04-09T06:51:04.878Z,7.60
2023-04-09T06:53:33.270Z,7.40
2023-04-09T06:56:04.990Z,7.50
2023-04-09T06:58:33.393Z,7.90
2023-04-09T07:01:02.251Z,8.50
2023-04-09T07:03:32.381Z,8.70
2023-04-09T07:06:00.809Z,8.90
2023-04-09T07:08:29.250Z,9.10
2023-04-09T07:10:57.495Z,9.30
2023-04-09T07:13:25.906Z,9.50
2023-04-09T07:15:54.514Z,9.60
2023-04-09T07:18:22.884Z,8.90
2023-04-09T07:20:53.872Z,8.30
2023-04-09T07:23:22.927Z,7.70
2023-04-09T07:25:51.697Z,7.60
2023-04-09T07:28:20.161Z,7.80
2023-04-09T07:30:48.481Z,7.90
2023-04-09T07:33:16.834Z,8.10
2023-04-09T07:35:45.770Z,8.20
2023-04-09T07:38:16.356Z,8.20
2023-04-09T07:40:44.641Z,8.10
2023-04-09T07:43:12.899Z,8.30
2023-04-09T07:45:41.233Z,8.40
2023-04-09T07:48:10.474Z,8.60
2023-04-09T07:50:39.135Z,8.70
2023-04-09T07:53:07.390Z,8.60
2023-04-09T07:55:37.070Z,9.20
2023-04-09T07:58:06.004Z,10.10
2023-04-09T08:00:34.231Z,10.60
2023-04-09T08:03:03.904Z,10.60
2023-04-09T08:05:32.618Z,11.00
2023-04-09T08:08:01.401Z,11.10
2023-04-09T08:10:29.707Z,11.40
2023-04-09T08:12:59.466Z,11.30
2023-04-09T08:15:27.755Z,10.70
2023-04-09T08:17:56.335Z,10.20
2023-04-09T08:20:24.887Z,10.00
2023-04-09T08:22:53.272Z,9.80
2023-04-09T08:25:21.656Z,9.90
2023-04-09T08:27:49.941Z,9.60
2023-04-09T08:30:19.890Z,9.50
2023-04-09T08:32:48.611Z,9.60
2023-04-09T08:35:17.233Z,9.40
2023-04-09T08:37:45.647Z,9.60
2023-04-09T08:40:14.433Z,10.20
2023-04-09T08:42:45.927Z,10.50
2023-04-09T08:45:14.686Z,10.90
2023-04-09T08:47:48.959Z,11.20
2023-04-09T08:50:17.456Z,11.90
2023-04-09T08:52:48.228Z,11.90
2023-04-09T08:55:16.515Z,11.80
2023-04-09T08:57:45.098Z,11.50
2023-04-09T09:00:14.348Z,11.50
2023-04-09T09:03:03.453Z,11.50
2023-04-09T09:05:39.526Z,11.00
2023-04-09T09:08:10.391Z,10.50
2023-04-09T09:10:39.951Z,10.70
2023-04-09T09:13:28.272Z,10.50
2023-04-09T09:16:14.059Z,10.70
2023-04-09T09:18:45.328Z,10.70
2023-04-09T09:21:14.350Z,11.20
2023-04-09T09:23:43.104Z,12.00
2023-04-09T09:26:16.586Z,12.60
2023-04-09T09:28:45.358Z,12.70
2023-04-09T09:31:14.062Z,12.40
2023-04-09T09:33:44.285Z,11.90
2023-04-09T09:36:13.048Z,11.10
2023-04-09T09:38:55.666Z,10.20
2023-04-09T09:41:24.906Z,9.90
2023-04-09T09:43:56.933Z,9.90
2023-04-09T09:46:27.670Z,10.00
2023-04-09T09:49:00.905Z,10.60
2023-04-09T09:51:29.708Z,11.30
2023-04-09T09:53:58.504Z,11.70
2023-04-09T09:56:36.183Z,12.40
2023-04-09T09:59:09.026Z,13.00
2023-04-09T10:01:38.663Z,14.30
2023-04-09T10:04:13.613Z,14.70
2023-04-09T10:06:45.427Z,15.10
2023-04-09T10:09:14.631Z,15.80
2023-04-09T10:11:45.659Z,16.10
2023-04-09T10:14:14.844Z,15.90
2023-04-09T10:16:44.070Z,16.20
2023-04-09T10:19:15.202Z,16.30
2023-04-09T10:21:49.020Z,16.70
2023-04-09T10:24:18.220Z,16.10
2023-04-09T10:26:46.966Z,14.90
2023-04-09T10:29:16.673Z,14.80
2023-04-09T10:31:50.005Z,13.60
2023-04-09T10:34:24.838Z,13.60
2023-04-09T10:36:54.784Z,14.10
2023-04-09T10:39:27.001Z,14.60
2023-04-09T10:41:57.265Z,14.80
2023-04-09T10:44:27.411Z,14.80
2023-04-09T10:46:56.357Z,14.80
2023-04-09T10:49:27.396Z,15.20
2023-04-09T10:52:02.677Z,14.70
2023-04-09T10:54:46.047Z,14.40
2023-04-09T10:57:19.496Z,14.40
2023-04-09T10:59:49.700Z,14.20
2023-04-09T11:02:59.531Z,13.70
2023-04-09T11:05:33.866Z,13.50
2023-04-09T11:08:07.370Z,13.10
2023-04-09T11:10:38.751Z,12.70
2023-04-09T11:13:07.123Z,13.20
2023-04-09T11:15:37.805Z,13.70
2023-04-09T11:18:09.665Z,14.30
2023-04-09T11:20:40.300Z,13.90
2023-04-09T11:23:08.827Z,13.80
2023-04-09T11:25:37.202Z,13.30
2023-04-09T11:28:06.751Z,13.10
2023-04-09T11:30:35.753Z,13.00
2023-04-09T11:33:04.341Z,12.80
2023-04-09T11:35:36.163Z,12.80
2023-04-09T11:38:09.567Z,13.10
2023-04-09T11:40:43.526Z,13.20
2023-04-09T11:43:11.905Z,13.30
2023-04-09T11:45:40.288Z,13.30
2023-04-09T11:48:08.976Z,13.60
2023-04-09T11:50:37.999Z,13.50
2023-04-09T11:53:22.043Z,13.30
2023-04-09T11:55:52.574Z,13.60
2023-04-09T11:58:24.113Z,13.20
2023-04-09T12:00:55.181Z,12.80
2023-04-09T12:03:30.904Z,12.60
2023-04-09T12:06:02.690Z,12.70
2023-04-09T12:08:34.597Z,12.90
2023-04-09T12:11:10.916Z,12.80
2023-04-09T12:13:43.230Z,12.80
2023-04-09T12:16:12.176Z,12.60
2023-04-09T12:18:41.251Z,13.10
2023-04-09T12:21:09.472Z,13.30
2023-04-09T12:23:39.231Z,13.60
2023-04-09T12:26:07.748Z,13.80
2023-04-09T12:28:36.024Z,13.90
2023-04-09T12:31:04.340Z,13.80
2023-04-09T12:33:33.122Z,13.60
2023-04-09T12:36:01.613Z,13.30
2023-04-09T12:38:29.980Z,13.10
2023-04-09T12:41:00.066Z,13.00
2023-04-09T12:43:28.385Z,12.90
2023-04-09T12:45:57.147Z,12.90
2023-04-09T12:48:25.742Z,13.20
2023-04-09T12:50:54.068Z,13.40
2023-04-09T12:53:22.546Z,13.60
2023-04-09T12:55:50.981Z,13.80
2023-04-09T12:58:20.875Z,13.80
2023-04-09T13:00:49.449Z,14.00
2023-04-09T13:03:17.896Z,14.00
2023-04-09T13:05:46.333Z,13.80
2023-04-09T13:08:14.569Z,13.10
2023-04-09T13:10:43.128Z,12.60
2023-04-09T13:13:13.097Z,12.60
2023-04-09T13:15:45.106Z,12.80
2023-04-09T13:18:14.410Z,13.00
2023-04-09T13:20:42.733Z,13.30
2023-04-09T13:23:10.946Z,14.00
2023-04-09T13:25:39.203Z,14.80
2023-04-09T13:28:08.517Z,15.70
2023-04-09T13:30:36.914Z,15.90
2023-04-09T13:33:06.703Z,15.70
2023-04-09T13:35:35.036Z,14.80
2023-04-09T13:38:03.445Z,14.10
2023-04-09T13:40:31.970Z,13.60
2023-04-09T13:43:00.295Z,13.20
2023-04-09T13:45:28.728Z,13.10
2023-04-09T13:47:57.026Z,13.00
2023-04-09T13:50:27.010Z,13.20
2023-04-09T13:52:55.243Z,13.30
2023-04-09T13:55:23.582Z,13.40
2023-04-09T13:57:51.858Z,13.60
2023-04-09T14:00:20.910Z,13.70
2023-04-09T14:02:49.340Z,13.50
2023-04-09T14:05:17.702Z,13.20
2023-04-09T14:07:47.421Z,13.00
2023-04-09T14:10:15.933Z,13.20
2023-04-09T14:12:44.200Z,13.40
2023-04-09T14:15:12.670Z,13.50
2023-04-09T14:17:41.430Z,13.50
2023-04-09T14:20:10.489Z,13.70
2023-04-09T14:22:38.952Z,13.40
2023-04-09T14:25:09.638Z,13.20
2023-04-09T14:27:39.013Z,12.90
2023-04-09T14:30:08.634Z,12.70
2023-04-09T14:32:36.885Z,12.70
2023-04-09T14:35:05.694Z,12.50
2023-04-09T14:37:33.979Z,12.30
2023-04-09T14:40:02.368Z,12.20
2023-04-09T14:42:32.175Z,12.20
2023-04-09T14:45:00.541Z,12.10
2023-04-09T14:47:28.821Z,12.00
2023-04-09T14:49:57.101Z,11.90
2023-04-09T14:52:25.950Z,11.90
2023-04-09T14:54:54.263Z,11.80
2023-04-09T14:57:22.462Z,11.80
2023-04-09T14:59:52.269Z,11.70
2023-04-09T15:02:20.795Z,11.70
2023-04-09T15:04:49.410Z,11.60
2023-04-09T15:07:17.725Z,11.70
2023-04-09T15:09:46.235Z,11.70
2023-04-09T15:12:14.429Z,11.60
2023-04-09T15:14:42.727Z,11.50
2023-04-09T15:17:12.563Z,11.40
2023-04-09T15:19:40.819Z,11.30
2023-04-09T15:22:12.309Z,11.40
2023-04-09T15:24:40.919Z,11.40
2023-04-09T15:27:09.297Z,11.30
2023-04-09T15:29:37.654Z,11.20
2023-04-09T15:32:06.188Z,11.10
2023-04-09T15:34:38.725Z,10.90
2023-04-09T15:37:07.147Z,10.70
2023-04-09T15:39:35.577Z,10.60
2023-04-09T15:42:03.911Z,10.60
2023-04-09T15:44:32.167Z,10.50
2023-04-09T15:47:00.382Z,10.40
2023-04-09T15:49:28.588Z,10.40
2023-04-09T15:51:58.212Z,10.40
2023-04-09T15:54:26.477Z,10.40
2023-04-09T15:56:54.673Z,10.30
2023-04-09T15:59:23.436Z,10.20
2023-04-09T16:01:51.640Z,10.20
2023-04-09T16:04:20.072Z,10.10
2023-04-09T16:06:48.377Z,10.00
2023-04-09T16:09:18.163Z,9.90
2023-04-09T16:11:46.713Z,9.90
2023-04-09T16:14:15.108Z,9.90
2023-04-09T16:16:47.077Z,9.80
2023-04-09T16:19:15.940Z,9.80
2023-04-09T16:21:45.491Z,9.70
2023-04-09T16:24:15.541Z,9.70
2023-04-09T16:26:46.521Z,9.70
2023-04-09T16:29:20.735Z,9.70
2023-04-09T16:31:48.939Z,9.60
2023-04-09T16:34:17.282Z,9.50
2023-04-09T16:36:45.651Z,9.50
2023-04-09T16:39:15.331Z,9.50
2023-04-09T16:41:45.421Z,9.50
2023-04-09T16:44:13.946Z,9.50
2023-04-09T16:46:43.560Z,9.40
2023-04-09T16:49:11.780Z,9.40
2023-04-09T16:51:40.030Z,9.30
2023-04-09T16:54:08.430Z,9.30
2023-04-09T16:56:37.217Z,9.20
2023-04-09T16:59:09.913Z,9.20
2023-04-09T17:01:38.197Z,9.10
2023-04-09T17:04:07.063Z,9.10
2023-04-09T17:06:35.360Z,9.10
2023-04-09T17:09:05.380Z,9.00
2023-04-09T17:11:33.761Z,9.00
2023-04-09T17:14:02.170Z,9.00
2023-04-09T17:16:32.291Z,9.00
2023-04-09T17:19:00.844Z,8.90
2023-04-09T17:21:32.293Z,8.90
2023-04-09T17:24:02.817Z,8.80
2023-04-09T17:26:31.678Z,8.80
2023-04-09T17:28:59.973Z,8.80
2023-04-09T17:31:28.279Z,8.80
2023-04-09T17:33:58.042Z,8.70
2023-04-09T17:36:26.405Z,8.70
2023-04-09T17:38:56.663Z,8.70
2023-04-09T17:41:28.213Z,8.60
2023-04-09T17:43:56.482Z,8.60
2023-04-09T17:46:25.750Z,8.60
2023-04-09T17:48:54.344Z,8.50
2023-04-09T17:51:24.485Z,8.50
2023-04-09T17:53:57.553Z,8.50
2023-04-09T17:56:27.183Z,8.40
2023-04-09T17:58:56.544Z,8.40
2023-04-09T18:01:25.156Z,8.30
2023-04-09T18:03:53.767Z,8.30
2023-04-09T18:06:27.856Z,8.30
2023-04-09T18:08:56.144Z,8.30
2023-04-09T18:11:24.850Z,8.20
2023-04-09T18:13:53.099Z,8.20
2023-04-09T18:16:23.356Z,8.20
2023-04-09T18:18:52.119Z,8.20
2023-04-09T18:21:20.789Z,8.10
2023-04-09T18:23:50.676Z,8.10
2023-04-09T18:26:19.057Z,8.10
2023-04-09T18:28:50.601Z,8.00
2023-04-09T18:31:22.446Z,8.00
2023-04-09T18:33:51.419Z,8.10
2023-04-09T18:36:19.950Z,8.00
2023-04-09T18:38:49.988Z,7.90
2023-04-09T18:41:23.409Z,7.90
2023-04-09T18:43:54.547Z,7.90
2023-04-09T18:46:22.986Z,7.80
2023-04-09T18:48:51.748Z,7.80
2023-04-09T18:51:20.930Z,7.70
2023-04-09T18:53:54.065Z,7.70
2023-04-09T18:56:23.025Z,7.60
2023-04-09T18:58:52.034Z,7.60
2023-04-09T19:01:20.856Z,7.50
2023-04-09T19:03:49.310Z,7.40
2023-04-09T19:06:19.351Z,7.40
2023-04-09T19:08:57.248Z,7.30
2023-04-09T19:11:28.788Z,7.30
2023-04-09T19:14:02.192Z,7.30
2023-04-09T19:16:31.071Z,7.20
2023-04-09T19:19:02.313Z,7.20
2023-04-09T19:21:33.803Z,7.20
2023-04-09T19:24:06.024Z,7.20
2023-04-09T19:26:34.772Z,7.20
2023-04-09T19:29:03.749Z,7.20
2023-04-09T19:31:35.350Z,7.20
2023-04-09T19:34:03.656Z,7.20
2023-04-09T19:36:33.899Z,7.20
2023-04-09T19:39:03.572Z,7.20
2023-04-09T19:41:31.897Z,7.20
2023-04-09T19:44:07.482Z,7.20
2023-04-09T19:46:35.875Z,7.20
2023-04-09T19:49:04.248Z,7.20
2023-04-09T19:51:32.712Z,7.20
2023-04-09T19:54:01.045Z,7.10
2023-04-09T19:56:32.940Z,7.20
2023-04-09T19:59:02.285Z,7.20
2023-04-09T20:01:30.768Z,7.20
2023-04-09T20:03:59.690Z,7.10
2023-04-09T20:06:29.010Z,7.10
2023-04-09T20:08:57.439Z,7.10
2023-04-09T20:11:25.929Z,7.10
2023-04-09T20:13:57.317Z,7.10
2023-04-09T20:16:28.759Z,7.10
2023-04-09T20:18:57.082Z,7.00
2023-04-09T20:21:25.483Z,7.00
2023-04-09T20:23:53.832Z,7.00
2023-04-09T20:26:22.115Z,7.00
2023-04-09T20:28:50.501Z,7.10
2023-04-09T20:31:23.042Z,7.20
2023-04-09T20:33:51.526Z,7.20
2023-04-09T20:36:20.320Z,7.30
2023-04-09T20:38:49.729Z,7.40
2023-04-09T20:41:18.314Z,7.30
2023-04-09T20:43:46.954Z,7.30
2023-04-09T20:46:15.540Z,7.30
2023-04-09T20:48:48.085Z,7.20
2023-04-09T20:51:19.545Z,7.10
2023-04-09T20:53:48.126Z,7.10
2023-04-09T20:56:17.521Z,7.10
2023-04-09T20:58:51.885Z,7.00
2023-04-09T21:01:20.615Z,7.00
2023-04-09T21:03:51.028Z,7.00
2023-04-09T21:06:19.326Z,7.00
2023-04-09T21:08:47.730Z,7.00
2023-04-09T21:11:16.196Z,7.00
2023-04-09T21:13:53.764Z,7.00
2023-04-09T21:16:28.641Z,6.90
2023-04-09T21:18:58.490Z,6.90
2023-04-09T21:21:28.444Z,6.70
2023-04-09T21:23:56.712Z,6.60
2023-04-09T21:26:25.424Z,6.50
2023-04-09T21:28:53.897Z,6.50
2023-04-09T21:31:26.617Z,6.60
2023-04-09T21:33:57.579Z,6.90
2023-04-09T21:36:29.069Z,7.00
2023-04-09T21:38:57.415Z,7.10
2023-04-09T21:41:25.813Z,7.00
2023-04-09T21:43:54.066Z,7.00
2023-04-09T21:46:22.890Z,6.90
2023-04-09T21:48:51.406Z,6.80
2023-04-09T21:51:19.935Z,6.70
2023-04-09T21:53:49.798Z,6.60
2023-04-09T21:56:18.110Z,6.60
2023-04-09T21:58:47.518Z,6.50
2023-04-09T22:01:26.523Z,6.50
2023-04-09T22:04:03.754Z,6.50
2023-04-09T22:06:32.594Z,6.60
2023-04-09T22:09:05.701Z,6.60
2023-04-09T22:11:34.683Z,6.70
2023-04-09T22:14:07.052Z,6.70
2023-04-09T22:16:36.219Z,6.60
2023-04-09T22:19:04.609Z,6.70
2023-04-09T22:21:32.895Z,6.60
2023-04-09T22:24:02.606Z,6.60
2023-04-09T22:26:30.989Z,6.50
2023-04-09T22:28:59.368Z,6.50
2023-04-09T22:31:28.726Z,6.40
2023-04-09T22:33:58.669Z,6.30
2023-04-09T22:36:31.068Z,6.20
2023-04-09T22:38:59.319Z,6.20
2023-04-09T22:41:29.044Z,6.20
2023-04-09T22:43:57.686Z,6.20
2023-04-09T22:46:26.162Z,6.30
2023-04-09T22:49:04.427Z,6.30
2023-04-09T22:51:34.922Z,6.30
2023-04-09T22:54:03.313Z,6.20
2023-04-09T22:56:33.624Z,6.20
2023-04-09T22:59:02.256Z,6.20
2023-04-09T23:01:31.528Z,6.10
2023-04-09T23:03:59.908Z,6.10
2023-04-09T23:06:28.292Z,6.10
2023-04-09T23:08:56.552Z,6.10
2023-04-09T23:11:24.784Z,6.00
2023-04-09T23:13:54.613Z,5.90
2023-04-09T23:16:23.053Z,5.80
2023-04-09T23:18:51.525Z,5.80
2023-04-09T23:21:19.919Z,5.80
2023-04-09T23:23:48.192Z,5.80
2023-04-09T23:26:16.526Z,5.80
2023-04-09T23:28:44.864Z,5.80
2023-04-09T23:31:14.609Z,5.70
2023-04-09T23:33:43.388Z,5.80
2023-04-09T23:36:11.885Z,5.70
2023-04-09T23:38:41.076Z,5.70
2023-04-09T23:41:09.305Z,5.70
2023-04-09T23:43:37.553Z,5.70
2023-04-09T23:46:06.251Z,5.60
2023-04-09T23:48:36.250Z,5.60
2023-04-09T23:51:04.887Z,5.50
2023-04-09T23:53:33.144Z,5.40
2023-04-09T23:56:01.658Z,5.40
2023-04-09T23:58:30.137Z,5.30
